createdAt,value
2023-05-23T00:01:24.944Z,97.75
2023-05-23T00:03:53.979Z,99.09
2023-05-23T00:06:23.442Z,99.97
2023-05-23T00:08:50.625Z,99.37
2023-05-23T00:11:18.977Z,99.34
2023-05-23T00:13:45.915Z,99.18
2023-05-23T00:16:12.534Z,99.45
2023-05-23T00:18:45.317Z,100.00
2023-05-23T00:21:13.603Z,99.91
2023-05-23T00:23:42.948Z,99.53
2023-05-23T00:26:10.653Z,100.00
2023-05-23T00:28:38.284Z,100.00
2023-05-23T00:31:04.964Z,99.24
2023-05-23T00:33:33.202Z,98.79
2023-05-23T00:36:02.558Z,98.16
2023-05-23T00:38:29.764Z,98.98
2023-05-23T00:40:56.384Z,98.21
2023-05-23T00:43:23.070Z,98.49
2023-05-23T00:45:49.996Z,99.11
2023-05-23T00:48:17.242Z,99.13
2023-05-23T00:50:44.086Z,100.00
2023-05-23T00:53:10.877Z,100.00
2023-05-23T00:55:37.584Z,100.00
2023-05-23T00:58:04.241Z,100.00
2023-05-23T01:00:32.213Z,100.00
2023-05-23T01:02:59.199Z,100.00
2023-05-23T01:05:25.815Z,100.00
2023-05-23T01:07:53.081Z,100.00
2023-05-23T01:10:25.811Z,100.00
2023-05-23T01:12:52.368Z,100.00
2023-05-23T01:15:21.972Z,100.00
2023-05-23T01:18:01.646Z,100.00
2023-05-23T01:20:48.714Z,100.00
2023-05-23T01:23:47.645Z,100.00
2023-05-23T01:26:29.236Z,100.00
2023-05-23T01:29:05.921Z,100.00
2023-05-23T01:31:35.832Z,100.00
2023-05-23T01:34:03.806Z,100.00
2023-05-23T01:36:35.430Z,100.00
2023-05-23T01:39:02.635Z,100.00
2023-05-23T01:41:29.416Z,100.00
2023-05-23T01:43:56.287Z,100.00
2023-05-23T01:46:24.214Z,100.00
2023-05-23T01:48:51.416Z,100.00
2023-05-23T01:51:18.193Z,100.00
2023-05-23T01:53:45.333Z,100.00
2023-05-23T01:56:12.113Z,100.00
2023-05-23T01:58:39.060Z,100.00
2023-05-23T02:01:05.873Z,100.00
2023-05-23T02:03:32.977Z,100.00
2023-05-23T02:05:59.741Z,100.00
2023-05-23T02:08:26.356Z,100.00
2023-05-23T02:10:52.964Z,100.00
2023-05-23T02:13:19.587Z,100.00
2023-05-23T02:15:46.254Z,100.00
2023-05-23T02:18:13.230Z,100.00
2023-05-23T02:20:40.655Z,100.00
2023-05-23T02:23:07.287Z,100.00
2023-05-23T02:25:33.998Z,100.00
2023-05-23T02:28:00.840Z,100.00
2023-05-23T02:30:27.449Z,100.00
2023-05-23T02:32:54.100Z,100.00
2023-05-23T02:35:21.009Z,100.00
2023-05-23T02:37:47.612Z,100.00
2023-05-23T02:40:14.242Z,100.00
2023-05-23T02:42:40.900Z,100.00
2023-05-23T02:45:08.256Z,100.00
2023-05-23T02:47:34.923Z,100.00
2023-05-23T02:50:01.623Z,100.00
2023-05-23T02:52:28.276Z,100.00
2023-05-23T02:54:54.953Z,100.00
2023-05-23T02:57:21.596Z,100.00
2023-05-23T02:59:48.297Z,100.00
2023-05-23T03:02:15.063Z,100.00
2023-05-23T03:04:41.766Z,100.00
2023-05-23T03:07:17.242Z,100.00
2023-05-23T03:09:51.027Z,100.00
2023-05-23T03:12:17.593Z,100.00
2023-05-23T03:14:44.209Z,100.00
2023-05-23T03:17:13.507Z,100.00
2023-05-23T03:19:40.270Z,100.00
2023-05-23T03:22:06.958Z,100.00
2023-05-23T03:24:33.506Z,100.00
2023-05-23T03:27:01.493Z,100.00
2023-05-23T03:29:28.070Z,100.00
2023-05-23T03:31:55.105Z,100.00
2023-05-23T03:34:23.903Z,100.00
2023-05-23T03:36:51.008Z,100.00
2023-05-23T03:39:17.642Z,100.00
2023-05-23T03:41:44.234Z,100.00
2023-05-23T03:44:11.005Z,100.00
2023-05-23T03:46:39.641Z,100.00
2023-05-23T03:49:06.706Z,100.00
2023-05-23T03:51:34.336Z,100.00
2023-05-23T03:54:00.956Z,100.00
2023-05-23T03:56:27.574Z,100.00
2023-05-23T03:58:54.162Z,100.00
2023-05-23T04:01:20.842Z,100.00
2023-05-23T04:03:48.173Z,100.00
2023-05-23T04:06:14.886Z,100.00
2023-05-23T04:08:42.103Z,100.00
2023-05-23T04:11:08.810Z,100.00
2023-05-23T04:13:35.622Z,100.00
2023-05-23T04:16:05.658Z,100.00
2023-05-23T04:18:39.125Z,100.00
2023-05-23T04:21:05.968Z,100.00
2023-05-23T04:23:32.677Z,100.00
2023-05-23T04:25:59.328Z,100.00
2023-05-23T04:28:28.754Z,100.00
2023-05-23T04:30:56.497Z,100.00
2023-05-23T04:33:23.175Z,100.00
2023-05-23T04:35:51.257Z,100.00
2023-05-23T04:38:17.935Z,100.00
2023-05-23T04:40:44.566Z,100.00
2023-05-23T04:43:14.315Z,100.00
2023-05-23T04:45:41.742Z,100.00
2023-05-23T04:48:08.722Z,100.00
2023-05-23T04:50:36.031Z,100.00
2023-05-23T04:53:02.737Z,100.00
2023-05-23T04:55:29.553Z,100.00
2023-05-23T04:57:56.436Z,100.00
2023-05-23T05:00:23.633Z,100.00
2023-05-23T05:02:50.319Z,100.00
2023-05-23T05:05:17.014Z,100.00
2023-05-23T05:07:43.683Z,100.00
2023-05-23T05:10:16.906Z,100.00
2023-05-23T05:12:49.516Z,100.00
2023-05-23T05:15:19.554Z,100.00
2023-05-23T05:17:48.919Z,100.00
2023-05-23T05:20:17.456Z,100.00
2023-05-23T05:22:44.636Z,100.00
2023-05-23T05:25:11.824Z,100.00
2023-05-23T05:27:39.910Z,100.00
2023-05-23T05:30:10.253Z,100.00
2023-05-23T05:32:36.964Z,100.00
2023-05-23T05:35:04.226Z,100.00
2023-05-23T05:37:31.075Z,99.89
2023-05-23T05:39:57.758Z,100.00
2023-05-23T05:42:24.730Z,99.26
2023-05-23T05:44:51.353Z,99.13
2023-05-23T05:47:18.134Z,99.05
2023-05-23T05:49:44.722Z,98.23
2023-05-23T05:52:11.344Z,96.63
2023-05-23T05:54:37.989Z,95.68
2023-05-23T05:57:04.905Z,94.42
2023-05-23T05:59:32.619Z,93.42
2023-05-23T06:01:59.731Z,93.08
2023-05-23T06:04:26.399Z,92.58
2023-05-23T06:06:53.060Z,92.56
2023-05-23T06:09:19.910Z,91.66
2023-05-23T06:11:46.930Z,90.56
2023-05-23T06:14:13.665Z,88.88
2023-05-23T06:16:41.055Z,89.09
2023-05-23T06:19:08.629Z,86.95
2023-05-23T06:21:36.293Z,85.82
2023-05-23T06:24:02.951Z,87.35
2023-05-23T06:26:29.570Z,85.22
2023-05-23T06:28:56.194Z,84.74
2023-05-23T06:31:22.817Z,83.75
2023-05-23T06:33:49.466Z,84.41
2023-05-23T06:36:16.097Z,83.36
2023-05-23T06:38:42.721Z,82.65
2023-05-23T06:41:09.419Z,83.32
2023-05-23T06:43:36.091Z,81.57
2023-05-23T06:46:02.699Z,81.01
2023-05-23T06:48:29.412Z,80.72
2023-05-23T06:50:56.178Z,77.18
2023-05-23T06:53:22.827Z,78.06
2023-05-23T06:55:49.497Z,77.85
2023-05-23T06:58:16.133Z,77.88
2023-05-23T07:00:43.038Z,76.84
2023-05-23T07:03:09.834Z,73.90
2023-05-23T07:05:40.054Z,74.08
2023-05-23T07:08:07.913Z,76.69
2023-05-23T07:10:35.348Z,72.99
2023-05-23T07:13:02.242Z,72.21
2023-05-23T07:15:28.878Z,73.41
2023-05-23T07:17:55.839Z,70.77
2023-05-23T07:20:22.675Z,71.77
2023-05-23T07:22:51.605Z,71.51
2023-05-23T07:25:18.889Z,70.77
2023-05-23T07:27:45.624Z,68.91
2023-05-23T07:30:12.415Z,70.69
2023-05-23T07:32:39.054Z,70.97
2023-05-23T07:35:06.625Z,69.29
2023-05-23T07:37:33.322Z,65.12
2023-05-23T07:40:01.208Z,65.94
2023-05-23T07:42:27.779Z,68.00
2023-05-23T07:44:54.395Z,66.24
2023-05-23T07:47:21.122Z,65.92
2023-05-23T07:49:47.722Z,67.25
2023-05-23T07:52:14.340Z,67.64
2023-05-23T07:54:41.015Z,66.45
2023-05-23T07:57:07.569Z,62.40
2023-05-23T07:59:34.223Z,62.18
2023-05-23T08:02:00.922Z,65.72
2023-05-23T08:04:29.070Z,68.54
2023-05-23T08:09:25.334Z,66.11
2023-05-23T08:11:51.948Z,60.76
2023-05-23T08:14:18.668Z,62.54
2023-05-23T08:16:46.355Z,59.65
2023-05-23T08:19:13.119Z,59.97
2023-05-23T08:21:39.703Z,60.31
2023-05-23T08:24:06.332Z,59.18
2023-05-23T08:26:35.022Z,60.73
2023-05-23T08:29:02.644Z,62.56
2023-05-23T08:31:29.966Z,59.12
2023-05-23T08:33:57.717Z,57.57
2023-05-23T08:36:24.380Z,57.19
2023-05-23T08:38:52.376Z,58.54
2023-05-23T08:41:21.050Z,58.40
2023-05-23T08:43:48.183Z,58.35
2023-05-23T08:46:15.412Z,60.70
2023-05-23T08:48:51.801Z,56.45
2023-05-23T08:51:21.427Z,55.43
2023-05-23T08:53:48.430Z,55.20
2023-05-23T08:56:19.121Z,57.06
2023-05-23T08:58:47.890Z,54.27
2023-05-23T09:01:15.614Z,51.35
2023-05-23T09:03:42.559Z,52.70
2023-05-23T09:06:10.933Z,54.88
2023-05-23T09:08:37.941Z,55.10
2023-05-23T09:11:06.516Z,53.33
2023-05-23T09:13:34.435Z,52.35
2023-05-23T09:16:12.839Z,52.57
2023-05-23T09:18:41.660Z,50.89
2023-05-23T09:21:09.933Z,50.39
2023-05-23T09:23:39.517Z,50.28
2023-05-23T09:26:10.930Z,51.32
2023-05-23T09:28:39.194Z,50.61
2023-05-23T09:31:08.686Z,52.82
2023-05-23T09:33:37.410Z,50.30
2023-05-23T09:36:05.444Z,48.17
2023-05-23T09:38:32.545Z,46.81
2023-05-23T09:40:59.679Z,45.70
2023-05-23T09:43:26.333Z,47.39
2023-05-23T09:45:54.823Z,46.51
2023-05-23T09:48:29.749Z,46.35
2023-05-23T09:50:56.738Z,46.67
2023-05-23T09:53:23.443Z,47.28
2023-05-23T09:55:51.726Z,48.53
2023-05-23T09:58:22.087Z,47.62
2023-05-23T10:00:52.989Z,47.08
2023-05-23T10:03:24.768Z,47.00
2023-05-23T10:05:56.981Z,45.80
2023-05-23T10:08:36.642Z,47.77
2023-05-23T10:11:16.599Z,45.27
2023-05-23T10:13:49.708Z,45.44
2023-05-23T10:16:27.397Z,45.41
2023-05-23T10:18:59.466Z,42.83
2023-05-23T10:21:41.280Z,44.68
2023-05-23T10:24:08.388Z,43.86
2023-05-23T10:26:35.918Z,41.76
2023-05-23T10:29:03.110Z,41.43
2023-05-23T10:31:30.096Z,42.74
2023-05-23T10:34:04.986Z,43.32
2023-05-23T10:36:45.136Z,43.32
2023-05-23T10:39:19.914Z,44.89
2023-05-23T10:41:55.910Z,45.18
2023-05-23T10:44:30.051Z,43.96
2023-05-23T10:46:58.840Z,45.38
2023-05-23T10:49:45.959Z,44.91
2023-05-23T10:52:14.186Z,43.85
2023-05-23T10:54:46.434Z,44.55
2023-05-23T10:57:17.172Z,43.80
2023-05-23T10:59:45.714Z,44.03
2023-05-23T11:02:17.006Z,42.34
2023-05-23T11:04:44.358Z,41.40
2023-05-23T11:07:31.475Z,43.44
2023-05-23T11:10:24.315Z,38.64
2023-05-23T11:13:05.827Z,39.12
2023-05-23T11:15:42.731Z,38.79
2023-05-23T11:18:09.338Z,39.67
2023-05-23T11:20:38.089Z,38.54
2023-05-23T11:23:08.430Z,40.66
2023-05-23T11:25:47.998Z,39.79
2023-05-23T11:28:14.936Z,37.68
2023-05-23T11:30:42.167Z,37.70
2023-05-23T11:33:17.110Z,38.01
2023-05-23T11:35:48.852Z,39.62
2023-05-23T11:38:17.060Z,40.35
2023-05-23T11:40:47.595Z,41.90
2023-05-23T11:43:19.930Z,43.08
2023-05-23T11:45:46.996Z,43.51
2023-05-23T11:48:16.699Z,42.35
2023-05-23T11:50:54.302Z,43.88
2023-05-23T11:53:25.477Z,45.00
2023-05-23T11:55:55.056Z,44.32
2023-05-23T11:58:22.965Z,43.81
2023-05-23T12:00:49.767Z,41.61
2023-05-23T12:03:16.646Z,42.15
2023-05-23T12:05:45.174Z,39.37
2023-05-23T12:08:13.799Z,39.75
2023-05-23T12:10:53.114Z,40.37
2023-05-23T12:13:20.628Z,38.23
2023-05-23T12:15:47.934Z,37.13
2023-05-23T12:18:16.640Z,38.78
2023-05-23T12:20:43.470Z,37.47
2023-05-23T12:23:22.246Z,36.55
2023-05-23T12:25:56.847Z,38.29
2023-05-23T12:28:45.525Z,35.34
2023-05-23T12:31:14.002Z,36.38
2023-05-23T12:33:44.059Z,34.79
2023-05-23T12:36:11.946Z,36.05
2023-05-23T12:38:39.620Z,37.33
2023-05-23T12:41:20.384Z,34.53
2023-05-23T12:43:54.524Z,33.91
2023-05-23T12:46:22.181Z,36.18
2023-05-23T12:48:48.876Z,34.68
2023-05-23T12:51:16.204Z,35.96
2023-05-23T12:53:43.185Z,35.05
2023-05-23T12:56:09.793Z,35.65
2023-05-23T12:58:36.398Z,35.58
2023-05-23T13:01:03.605Z,36.81
2023-05-23T13:03:33.585Z,35.70
2023-05-23T13:06:00.745Z,37.92
2023-05-23T13:08:27.682Z,37.10
2023-05-23T13:10:54.409Z,37.39
2023-05-23T13:13:21.109Z,36.67
2023-05-23T13:15:48.938Z,36.66
2023-05-23T13:18:17.544Z,34.93
2023-05-23T13:20:44.177Z,36.69
2023-05-23T13:23:11.048Z,36.09
2023-05-23T13:25:37.708Z,36.68
2023-05-23T13:28:04.621Z,36.70
2023-05-23T13:30:31.830Z,35.05
2023-05-23T13:32:58.518Z,36.49
2023-05-23T13:35:25.129Z,35.84
2023-05-23T13:37:51.782Z,36.04
2023-05-23T13:40:20.880Z,34.56
2023-05-23T13:42:50.957Z,34.23
2023-05-23T13:45:18.503Z,33.74
2023-05-23T13:47:45.543Z,35.08
2023-05-23T13:50:12.384Z,35.15
2023-05-23T13:52:41.166Z,33.34
2023-05-23T13:55:09.982Z,33.80
2023-05-23T13:57:36.631Z,32.96
2023-05-23T14:00:03.833Z,33.32
2023-05-23T14:02:32.145Z,34.81
2023-05-23T14:04:59.039Z,34.77
2023-05-23T14:07:25.679Z,33.28
2023-05-23T14:09:52.329Z,34.50
2023-05-23T14:12:18.940Z,32.52
2023-05-23T14:14:45.781Z,33.64
2023-05-23T14:17:16.698Z,34.48
2023-05-23T14:19:43.918Z,33.15
2023-05-23T14:22:11.330Z,32.58
2023-05-23T14:24:38.067Z,31.83
2023-05-23T14:27:04.844Z,31.47
2023-05-23T14:29:31.793Z,31.98
2023-05-23T14:32:00.766Z,31.95
2023-05-23T14:34:27.599Z,32.76
2023-05-23T14:36:54.287Z,32.12
2023-05-23T14:39:20.944Z,32.42
2023-05-23T14:41:47.568Z,33.01
2023-05-23T14:44:14.317Z,30.64
2023-05-23T14:46:42.707Z,29.76
2023-05-23T14:49:09.370Z,30.92
2023-05-23T14:51:48.483Z,30.21
2023-05-23T14:54:17.346Z,29.97
2023-05-23T14:56:44.044Z,31.15
2023-05-23T14:59:11.163Z,32.39
2023-05-23T15:01:40.173Z,30.59
2023-05-23T15:04:09.406Z,31.00
2023-05-23T15:06:38.002Z,29.21
2023-05-23T15:09:05.019Z,28.74
2023-05-23T15:11:33.302Z,29.01
2023-05-23T15:13:59.882Z,30.23
2023-05-23T15:16:26.837Z,30.16
2023-05-23T15:18:53.627Z,33.50
2023-05-23T15:21:20.471Z,30.87
2023-05-23T15:23:47.114Z,32.33
2023-05-23T15:26:13.796Z,33.09
2023-05-23T15:28:40.379Z,33.80
2023-05-23T15:31:07.096Z,34.84
2023-05-23T15:33:33.820Z,34.30
2023-05-23T15:36:01.244Z,33.27
2023-05-23T15:38:27.847Z,34.02
2023-05-23T15:40:56.544Z,33.29
2023-05-23T15:43:24.952Z,33.71
2023-05-23T15:45:52.192Z,34.33
2023-05-23T15:48:19.030Z,36.03
2023-05-23T15:50:46.123Z,35.71
2023-05-23T15:53:12.885Z,34.31
2023-05-23T15:55:42.022Z,35.40
2023-05-23T15:58:09.637Z,35.54
2023-05-23T16:00:36.372Z,35.99
2023-05-23T16:03:03.003Z,36.28
2023-05-23T16:05:29.738Z,36.32
2023-05-23T16:07:56.837Z,37.01
2023-05-23T16:10:24.647Z,37.28
2023-05-23T16:12:51.535Z,37.31
2023-05-23T16:15:18.194Z,37.53
2023-05-23T16:17:44.935Z,37.24
2023-05-23T16:20:11.827Z,37.20
2023-05-23T16:22:38.548Z,36.65
2023-05-23T16:25:06.817Z,37.28
2023-05-23T16:27:33.706Z,38.46
2023-05-23T16:30:00.408Z,37.26
2023-05-23T16:32:28.821Z,38.25
2023-05-23T16:34:56.293Z,37.69
2023-05-23T16:37:23.485Z,37.73
2023-05-23T16:39:50.218Z,38.51
2023-05-23T16:42:17.822Z,38.34
2023-05-23T16:44:45.149Z,39.11
2023-05-23T16:47:11.801Z,38.54
2023-05-23T16:49:38.416Z,39.12
2023-05-23T16:52:05.247Z,39.36
2023-05-23T16:54:31.891Z,39.31
2023-05-23T16:57:01.909Z,39.70
2023-05-23T16:59:29.909Z,41.34
2023-05-23T17:01:56.889Z,40.29
2023-05-23T17:04:24.126Z,41.15
2023-05-23T17:06:51.163Z,41.56
2023-05-23T17:09:18.258Z,41.26
2023-05-23T17:11:45.120Z,41.98
2023-05-23T17:14:11.931Z,42.89
2023-05-23T17:16:39.314Z,42.81
2023-05-23T17:19:06.056Z,42.26
2023-05-23T17:21:32.965Z,44.75
2023-05-23T17:23:59.651Z,43.06
2023-05-23T17:26:27.550Z,42.86
2023-05-23T17:28:54.186Z,43.62
2023-05-23T17:31:21.471Z,45.09
2023-05-23T17:33:48.129Z,45.50
2023-05-23T17:36:14.750Z,47.45
2023-05-23T17:38:41.691Z,47.67
2023-05-23T17:41:08.332Z,48.08
2023-05-23T17:43:34.933Z,50.06
2023-05-23T17:46:01.697Z,50.26
2023-05-23T17:48:42.515Z,51.38
2023-05-23T17:51:12.964Z,52.03
2023-05-23T17:53:41.440Z,52.11
2023-05-23T17:56:11.239Z,52.66
2023-05-23T17:58:39.340Z,52.70
2023-05-23T18:01:07.885Z,53.22
2023-05-23T18:03:34.589Z,53.39
2023-05-23T18:06:01.181Z,54.01
2023-05-23T18:08:28.025Z,54.53
2023-05-23T18:10:54.679Z,54.14
2023-05-23T18:13:21.425Z,54.51
2023-05-23T18:15:48.204Z,55.26
2023-05-23T18:18:16.847Z,55.52
2023-05-23T18:20:44.415Z,55.57
2023-05-23T18:23:12.103Z,56.67
2023-05-23T18:25:38.772Z,55.99
2023-05-23T18:28:05.476Z,57.09
2023-05-23T18:30:32.206Z,56.67
2023-05-23T18:32:59.196Z,57.23
2023-05-23T18:35:26.022Z,56.96
2023-05-23T18:37:53.772Z,57.07
2023-05-23T18:40:21.781Z,58.60
2023-05-23T18:42:48.632Z,56.98
2023-05-23T18:45:15.348Z,58.93
2023-05-23T18:47:42.420Z,58.07
2023-05-23T18:50:09.664Z,58.85
2023-05-23T18:52:37.348Z,61.57
2023-05-23T18:55:04.298Z,62.76
2023-05-23T18:57:32.268Z,63.49
2023-05-23T18:59:58.949Z,63.99
2023-05-23T19:02:26.835Z,65.29
2023-05-23T19:04:53.698Z,64.23
2023-05-23T19:07:20.339Z,64.16
2023-05-23T19:09:47.533Z,64.52
2023-05-23T19:12:14.162Z,64.06
2023-05-23T19:14:41.411Z,64.32
2023-05-23T19:17:08.070Z,64.23
2023-05-23T19:19:35.017Z,64.46
2023-05-23T19:22:01.619Z,65.16
2023-05-23T19:24:28.234Z,65.43
2023-05-23T19:26:56.303Z,65.61
2023-05-23T19:29:24.124Z,66.63
2023-05-23T19:31:50.813Z,67.09
2023-05-23T19:34:17.487Z,68.30
2023-05-23T19:36:44.154Z,69.93
2023-05-23T19:39:12.467Z,70.37
2023-05-23T19:41:40.173Z,71.99
2023-05-23T19:44:06.809Z,73.64
2023-05-23T19:46:33.448Z,71.43
2023-05-23T19:49:00.141Z,73.00
2023-05-23T19:51:26.886Z,74.87
2023-05-23T19:53:54.626Z,76.25
2023-05-23T19:56:25.934Z,76.31
2023-05-23T19:58:52.688Z,77.44
2023-05-23T20:01:19.434Z,77.94
2023-05-23T20:03:46.154Z,77.25
2023-05-23T20:06:16.750Z,77.33
2023-05-23T20:08:43.503Z,77.46
2023-05-23T20:11:10.767Z,77.04
2023-05-23T20:13:38.727Z,77.78
2023-05-23T20:16:07.805Z,78.60
2023-05-23T20:18:34.669Z,78.32
2023-05-23T20:21:03.530Z,78.74
2023-05-23T20:23:31.701Z,78.86
2023-05-23T20:25:58.413Z,79.53
2023-05-23T20:28:25.084Z,79.58
2023-05-23T20:30:51.813Z,79.97
2023-05-23T20:33:19.517Z,79.12
2023-05-23T20:35:48.367Z,78.60
2023-05-23T20:38:18.638Z,79.18
2023-05-23T20:40:46.222Z,80.83
2023-05-23T20:43:15.048Z,81.13
2023-05-23T20:45:41.833Z,80.47
2023-05-23T20:48:11.383Z,80.49
2023-05-23T20:50:38.639Z,81.33
2023-05-23T20:53:06.457Z,81.46
2023-05-23T20:55:35.411Z,82.19
2023-05-23T20:58:02.258Z,81.57
2023-05-23T21:00:28.841Z,81.23
2023-05-23T21:02:55.921Z,81.33
2023-05-23T21:05:22.700Z,81.38
2023-05-23T21:07:49.333Z,81.94
2023-05-23T21:10:15.991Z,81.76
2023-05-23T21:12:49.291Z,83.58
2023-05-23T21:15:16.581Z,83.70
2023-05-23T21:17:43.221Z,84.30
2023-05-23T21:20:10.777Z,83.56
2023-05-23T21:22:37.660Z,83.47
2023-05-23T21:25:05.255Z,85.18
2023-05-23T21:27:31.908Z,85.54
2023-05-23T21:29:58.697Z,85.80
2023-05-23T21:32:25.327Z,85.91
2023-05-23T21:34:51.920Z,86.65
2023-05-23T21:37:18.551Z,86.96
2023-05-23T21:39:52.091Z,88.90
2023-05-23T21:42:21.045Z,89.55
2023-05-23T21:44:48.048Z,89.03
2023-05-23T21:47:14.750Z,90.43
2023-05-23T21:49:41.431Z,91.53
2023-05-23T21:52:08.137Z,91.33
2023-05-23T21:54:34.868Z,90.51
2023-05-23T21:57:01.705Z,90.99
2023-05-23T21:59:28.327Z,90.66
2023-05-23T22:01:55.025Z,90.36
2023-05-23T22:04:21.815Z,90.72
2023-05-23T22:06:48.584Z,89.92
2023-05-23T22:09:15.459Z,90.42
2023-05-23T22:11:42.440Z,90.73
2023-05-23T22:14:09.412Z,91.85
2023-05-23T22:16:39.523Z,93.26
2023-05-23T22:19:07.953Z,93.40
2023-05-23T22:21:34.758Z,93.32
2023-05-23T22:24:01.459Z,92.49
2023-05-23T22:26:28.578Z,92.79
2023-05-23T22:28:55.821Z,92.52
2023-05-23T22:31:24.153Z,93.39
2023-05-23T22:33:51.401Z,93.79
2023-05-23T22:36:18.405Z,93.64
2023-05-23T22:38:45.142Z,93.46
2023-05-23T22:41:11.790Z,92.80
2023-05-23T22:43:38.560Z,93.20
2023-05-23T22:46:05.339Z,92.70
2023-05-23T22:48:35.070Z,93.34
2023-05-23T22:51:02.613Z,93.80
2023-05-23T22:53:30.188Z,94.42
2023-05-23T22:55:57.535Z,95.03
2023-05-23T22:58:24.248Z,95.99
2023-05-23T23:00:51.286Z,96.98
2023-05-23T23:03:18.312Z,97.22
2023-05-23T23:05:45.182Z,98.18
2023-05-23T23:08:12.318Z,98.13
2023-05-23T23:10:40.348Z,97.66
2023-05-23T23:13:07.302Z,97.89
2023-05-23T23:15:34.064Z,98.52
2023-05-23T23:18:01.267Z,98.80
2023-05-23T23:20:28.538Z,99.60
2023-05-23T23:22:55.300Z,99.91
2023-05-23T23:25:22.114Z,100.00
2023-05-23T23:27:48.932Z,99.77
2023-05-23T23:30:15.730Z,100.00
2023-05-23T23:32:42.475Z,100.00
2023-05-23T23:35:09.558Z,100.00
2023-05-23T23:37:36.223Z,100.00
2023-05-23T23:40:02.827Z,100.00
2023-05-23T23:42:29.441Z,100.00
2023-05-23T23:44:56.100Z,100.00
2023-05-23T23:47:22.725Z,100.00
2023-05-23T23:49:49.338Z,100.00
2023-05-23T23:52:16.258Z,100.00
2023-05-23T23:54:42.937Z,100.00
2023-05-23T23:57:14.167Z,100.00
2023-05-23T23:59:41.800Z,100.00
